Fjordprinsessen — LJVE — position and weather

sailwx.info

Track history (hours):
 
Tides and Currents Weather Stations Pressure Air Temp Water Temp Dewpoint Dewpoint Depression Visibility Wind Speed Wind Dir Waves Ship Positions

Fjordprinsessen

Last reported at 2015-Jul-28 06:23 UTC. Time now 2015-Jul-28 15:20 UTC.
Position N 66°17' E 012°56'.

Length 30 m; draft 2 m.

Type: High speed craft. MMSI: 259604000.

Date/timePositionNaut miles runAvg speedWind from/ knotsBaromVisibWave heightAir tempDewpointWater temp
2015-Jul-28 06:23N 66°17' E 012°56'911.3
2015-Jul-28 05:34N 66°22' E 012°37'1514.8
2015-Jul-28 04:33N 66°30' E 012°06'6 4.4
2015-Jul-28 03:14N 66°35' E 012°13'0 0.0
2015-Jul-27 23:26N 66°35' E 012°13'2 0.6
2015-Jul-27 19:32N 66°33' E 012°10'1515.7
2015-Jul-27 18:33N 66°23' E 012°38'1615.4
2015-Jul-27 17:31N 66°35' E 012°13'1313.8
2015-Jul-27 16:33N 66°22' E 012°22'1515.0
2015-Jul-27 15:33N 66°21' E 012°60'4 0.5
2015-Jul-27 06:24N 66°17' E 012°56'911.1
2015-Jul-27 05:34N 66°22' E 012°38'1514.7
2015-Jul-27 04:33N 66°30' E 012°07'5 5.2
2015-Jul-27 03:32N 66°35' E 012°13'0 0.0
2015-Jul-27 02:20N 66°35' E 012°13'0 0.0
2015-Jul-27 01:20N 66°35' E 012°13'0 0.0
2015-Jul-26 21:26N 66°35' E 012°13'3 3.9
2015-Jul-26 20:33N 66°32' E 012°08'1615.8
2015-Jul-26 19:33N 66°22' E 012°37'9 6.8
2015-Jul-26 18:11N 66°17' E 012°56'813.1
2015-Jul-26 17:33N 66°23' E 012°45'1414.4
2015-Jul-26 16:33N 66°29' E 012°11'7 6.7
2015-Jul-26 15:33N 66°30' E 012°28'1614.2
2015-Jul-26 14:26N 66°20' E 013°00'1113.0
2015-Jul-26 13:33N 66°24' E 012°33'1313.3
2015-Jul-26 12:33N 66°34' E 012°12'1 0.9
2015-Jul-26 11:27N 66°35' E 012°13'0 0.0
2015-Jul-26 10:09N 66°35' E 012°13'0 0.0
2015-Jul-26 09:33N 66°35' E 012°13'0 0.0
2015-Jul-26 07:33N 66°35' E 012°13'0 0.0
2015-Jul-26 06:33N 66°35' E 012°13'0 0.0
2015-Jul-26 05:27N 66°35' E 012°13'0 0.0
2015-Jul-26 01:32N 66°35' E 012°13'0 0.0
2015-Jul-26 00:32N 66°35' E 012°13'0 0.0
2015-Jul-25 23:08N 66°35' E 012°13'0 0.0
2015-Jul-25 22:20N 66°35' E 012°13'0 0.0
2015-Jul-25 21:32N 66°35' E 012°13'0 0.0
2015-Jul-25 20:20N 66°35' E 012°13'5 6.9
2015-Jul-25 19:33N 66°30' E 012°10'1616.2
2015-Jul-25 18:33N 66°23' E 012°47'1716.8
2015-Jul-25 17:33N 66°34' E 012°14'1212.4
2015-Jul-25 16:33N 66°22' E 012°22'15 1.5
2015-Jul-25 06:22N 66°17' E 012°56'1011.8
2015-Jul-25 05:34N 66°22' E 012°38'1514.5
2015-Jul-25 04:33N 66°30' E 012°06'6 4.5
2015-Jul-25 03:16N 66°35' E 012°13'0 0.0
2015-Jul-25 02:10N 66°35' E 012°13'0 0.0
2015-Jul-25 01:16N 66°35' E 012°13'0 0.0
2015-Jul-25 00:16N 66°35' E 012°13'0 0.0
2015-Jul-24 23:22N 66°35' E 012°13'5 1.4
2015-Jul-24 19:33N 66°30' E 012°07'1514.6
2015-Jul-24 18:33N 66°22' E 012°37'1615.9
2015-Jul-24 17:31N 66°35' E 012°12'1313.7
2015-Jul-24 16:33N 66°22' E 012°22'1513.5
2015-Jul-24 15:25N 66°20' E 013°00'4 2.0
2015-Jul-24 13:20N 66°16' E 012°57'1114.9
2015-Jul-24 12:33N 66°26' E 012°40'1313.2
2015-Jul-24 11:33N 66°30' E 012°09'1414.2
2015-Jul-24 10:33N 66°23' E 012°39'1712.3
2015-Jul-24 09:13N 66°07' E 012°46'13 4.5
2015-Jul-24 06:20N 66°19' E 012°58'911.1
2015-Jul-24 05:33N 66°23' E 012°39'1515.0
2015-Jul-24 04:33N 66°30' E 012°06'6 4.8
2015-Jul-24 03:23N 66°35' E 012°13'0 0.0
2015-Jul-24 02:17N 66°35' E 012°13'0 0.0
2015-Jul-24 01:17N 66°35' E 012°13'0 0.0
2015-Jul-24 00:23N 66°35' E 012°13'0 0.0
2015-Jul-23 20:07N 66°35' E 012°13'813.5
2015-Jul-23 19:34N 66°28' E 012°14'1413.8
2015-Jul-23 18:33N 66°23' E 012°48'1817.6
2015-Jul-23 17:31N 66°35' E 012°12'1313.6
2015-Jul-23 16:34N 66°22' E 012°22'1514.8
2015-Jul-23 15:33N 66°21' E 012°59'4 0.4
2015-Jul-23 06:22N 66°17' E 012°57'911.4
2015-Jul-23 05:33N 66°23' E 012°38'1514.5
2015-Jul-23 04:33N 66°30' E 012°06'6 5.3
2015-Jul-23 03:27N 66°35' E 012°13'0 0.0
2015-Jul-23 01:20N 66°35' E 012°13'0 0.0
2015-Jul-23 00:32N 66°35' E 012°13'0 0.0
2015-Jul-22 23:32N 66°35' E 012°13'0 0.0
2015-Jul-22 21:26N 66°35' E 012°13'0 0.0
2015-Jul-22 20:14N 66°35' E 012°13'6 8.5
2015-Jul-22 19:33N 66°30' E 012°06'1515.3
2015-Jul-22 18:33N 66°23' E 012°40'1616.0
2015-Jul-22 17:33N 66°35' E 012°13'1313.5
2015-Jul-22 16:33N 66°24' E 012°32'1211.4
2015-Jul-22 15:31N 66°20' E 013°00'4 2.0
2015-Jul-22 13:23N 66°16' E 012°57'1315.7
2015-Jul-22 12:34N 66°27' E 012°37'1111.3
2015-Jul-22 11:34N 66°30' E 012°10'1313.3
2015-Jul-22 10:33N 66°23' E 012°39'1612.4
2015-Jul-22 09:16N 66°07' E 012°47'10 3.5
2015-Jul-22 06:24N 66°17' E 012°56'911.1
2015-Jul-22 05:34N 66°23' E 012°38'1414.0
2015-Jul-22 04:33N 66°30' E 012°09'5 5.1
2015-Jul-22 03:33N 66°35' E 012°13'0 0.0
2015-Jul-22 02:33N 66°35' E 012°13'0 0.0
2015-Jul-22 01:33N 66°35' E 012°13'0 0.0
2015-Jul-22 00:33N 66°35' E 012°13'0 0.0
2015-Jul-21 23:33N 66°35' E 012°13'0 0.0
2015-Jul-21 22:31N 66°35' E 012°13'0 0.0
2015-Jul-21 21:33N 66°35' E 012°13'0 0.0
2015-Jul-21 20:32N 66°35' E 012°13'2 2.4
2015-Jul-21 19:31N 66°33' E 012°10'1313.2
2015-Jul-21 18:34N 66°25' E 012°33'9 8.9
2015-Jul-21 17:34N 66°32' E 012°21'9 9.5
2015-Jul-21 16:34N 66°23' E 012°22'1514.0
2015-Jul-21 15:28N 66°20' E 013°00'0 0.0
2015-Jul-21 06:07N 66°21' E 012°60'916.1
2015-Jul-21 05:34N 66°22' E 012°38'1514.4
2015-Jul-21 04:33N 66°30' E 012°07'5 5.0
2015-Jul-21 03:30N 66°35' E 012°13'0 0.0
2015-Jul-21 02:33N 66°35' E 012°13'0 0.0
2015-Jul-21 01:33N 66°35' E 012°13'0 0.0
2015-Jul-21 00:31N 66°35' E 012°13'0 0.0
2015-Jul-20 23:28N 66°35' E 012°13'0 0.0
2015-Jul-20 22:32N 66°35' E 012°13'0 0.0
2015-Jul-20 21:30N 66°35' E 012°13'0 0.0
2015-Jul-20 20:22N 66°35' E 012°13'6 7.3
2015-Jul-20 19:34N 66°29' E 012°10'1616.0
2015-Jul-20 18:33N 66°23' E 012°47'1817.2
2015-Jul-20 17:31N 66°35' E 012°13'1313.9
2015-Jul-20 16:34N 66°22' E 012°24'1514.4
2015-Jul-20 15:33N 66°20' E 013°00'13 0.5
2015-Jul-19 14:21N 66°10' E 012°40'1721.1
2015-Jul-19 13:34N 66°26' E 012°38'1310.2
2015-Jul-19 12:16N 66°35' E 012°13'0 0.0
2015-Jul-19 00:28N 66°35' E 012°13'0 0.0
2015-Jul-18 23:28N 66°35' E 012°13'1 0.1
2015-Jul-18 19:33N 66°35' E 012°12'1616.4
2015-Jul-18 18:33N 66°22' E 012°37'1514.9
2015-Jul-18 17:31N 66°34' E 012°14'1312.9
2015-Jul-18 16:33N 66°22' E 012°22'1413.7
2015-Jul-18 15:33N 66°21' E 012°57'19 2.2
2015-Jul-18 07:05N 66°03' E 012°39'  
Track history (hours):
 
Tides and Currents Weather Stations Pressure Air Temp Water Temp Dewpoint Dewpoint Depression Visibility Wind Speed Wind Dir Waves Ship Positions

Fjordprinsessen

Last reported at 2015-Jul-28 06:23 UTC. Time now 2015-Jul-28 15:20 UTC.
Position N 66°17' E 012°56'.

Length 30 m; draft 2 m.

Type: High speed craft. MMSI: 259604000.

Date/timePositionNaut miles runAvg speedWind from/ knotsBaromVisibWave heightAir tempDewpointWater temp
2015-Jul-28 06:23N 66°17' E 012°56'911.3
2015-Jul-28 05:34N 66°22' E 012°37'1514.8
2015-Jul-28 04:33N 66°30' E 012°06'6 4.4
2015-Jul-28 03:14N 66°35' E 012°13'0 0.0
2015-Jul-27 23:26N 66°35' E 012°13'2 0.6
2015-Jul-27 19:32N 66°33' E 012°10'1515.7
2015-Jul-27 18:33N 66°23' E 012°38'1615.4
2015-Jul-27 17:31N 66°35' E 012°13'1313.8
2015-Jul-27 16:33N 66°22' E 012°22'1515.0
2015-Jul-27 15:33N 66°21' E 012°60'4 0.5
2015-Jul-27 06:24N 66°17' E 012°56'911.1
2015-Jul-27 05:34N 66°22' E 012°38'1514.7
2015-Jul-27 04:33N 66°30' E 012°07'5 5.2
2015-Jul-27 03:32N 66°35' E 012°13'0 0.0
2015-Jul-27 02:20N 66°35' E 012°13'0 0.0
2015-Jul-27 01:20N 66°35' E 012°13'0 0.0
2015-Jul-26 21:26N 66°35' E 012°13'3 3.9
2015-Jul-26 20:33N 66°32' E 012°08'1615.8
2015-Jul-26 19:33N 66°22' E 012°37'9 6.8
2015-Jul-26 18:11N 66°17' E 012°56'813.1
2015-Jul-26 17:33N 66°23' E 012°45'1414.4
2015-Jul-26 16:33N 66°29' E 012°11'7 6.7
2015-Jul-26 15:33N 66°30' E 012°28'1614.2
2015-Jul-26 14:26N 66°20' E 013°00'1113.0
2015-Jul-26 13:33N 66°24' E 012°33'1313.3
2015-Jul-26 12:33N 66°34' E 012°12'1 0.9
2015-Jul-26 11:27N 66°35' E 012°13'0 0.0
2015-Jul-26 10:09N 66°35' E 012°13'0 0.0
2015-Jul-26 09:33N 66°35' E 012°13'0 0.0
2015-Jul-26 07:33N 66°35' E 012°13'0 0.0
2015-Jul-26 06:33N 66°35' E 012°13'0 0.0
2015-Jul-26 05:27N 66°35' E 012°13'0 0.0
2015-Jul-26 01:32N 66°35' E 012°13'0 0.0
2015-Jul-26 00:32N 66°35' E 012°13'0 0.0
2015-Jul-25 23:08N 66°35' E 012°13'0 0.0
2015-Jul-25 22:20N 66°35' E 012°13'0 0.0
2015-Jul-25 21:32N 66°35' E 012°13'0 0.0
2015-Jul-25 20:20N 66°35' E 012°13'5 6.9
2015-Jul-25 19:33N 66°30' E 012°10'1616.2
2015-Jul-25 18:33N 66°23' E 012°47'1716.8
2015-Jul-25 17:33N 66°34' E 012°14'1212.4
2015-Jul-25 16:33N 66°22' E 012°22'15 1.5
2015-Jul-25 06:22N 66°17' E 012°56'1011.8
2015-Jul-25 05:34N 66°22' E 012°38'1514.5
2015-Jul-25 04:33N 66°30' E 012°06'6 4.5
2015-Jul-25 03:16N 66°35' E 012°13'0 0.0
2015-Jul-25 02:10N 66°35' E 012°13'0 0.0
2015-Jul-25 01:16N 66°35' E 012°13'0 0.0
2015-Jul-25 00:16N 66°35' E 012°13'0 0.0
2015-Jul-24 23:22N 66°35' E 012°13'5 1.4
2015-Jul-24 19:33N 66°30' E 012°07'1514.6
2015-Jul-24 18:33N 66°22' E 012°37'1615.9
2015-Jul-24 17:31N 66°35' E 012°12'1313.7
2015-Jul-24 16:33N 66°22' E 012°22'1513.5
2015-Jul-24 15:25N 66°20' E 013°00'4 2.0
2015-Jul-24 13:20N 66°16' E 012°57'1114.9
2015-Jul-24 12:33N 66°26' E 012°40'1313.2
2015-Jul-24 11:33N 66°30' E 012°09'1414.2
2015-Jul-24 10:33N 66°23' E 012°39'1712.3
2015-Jul-24 09:13N 66°07' E 012°46'13 4.5
2015-Jul-24 06:20N 66°19' E 012°58'911.1
2015-Jul-24 05:33N 66°23' E 012°39'1515.0
2015-Jul-24 04:33N 66°30' E 012°06'6 4.8
2015-Jul-24 03:23N 66°35' E 012°13'0 0.0
2015-Jul-24 02:17N 66°35' E 012°13'0 0.0
2015-Jul-24 01:17N 66°35' E 012°13'0 0.0
2015-Jul-24 00:23N 66°35' E 012°13'0 0.0
2015-Jul-23 20:07N 66°35' E 012°13'813.5
2015-Jul-23 19:34N 66°28' E 012°14'1413.8
2015-Jul-23 18:33N 66°23' E 012°48'1817.6
2015-Jul-23 17:31N 66°35' E 012°12'1313.6
2015-Jul-23 16:34N 66°22' E 012°22'1514.8
2015-Jul-23 15:33N 66°21' E 012°59'4 0.4
2015-Jul-23 06:22N 66°17' E 012°57'911.4
2015-Jul-23 05:33N 66°23' E 012°38'1514.5
2015-Jul-23 04:33N 66°30' E 012°06'6 5.3
2015-Jul-23 03:27N 66°35' E 012°13'0 0.0
2015-Jul-23 01:20N 66°35' E 012°13'0 0.0
2015-Jul-23 00:32N 66°35' E 012°13'0 0.0
2015-Jul-22 23:32N 66°35' E 012°13'0 0.0
2015-Jul-22 21:26N 66°35' E 012°13'0 0.0
2015-Jul-22 20:14N 66°35' E 012°13'6 8.5
2015-Jul-22 19:33N 66°30' E 012°06'1515.3
2015-Jul-22 18:33N 66°23' E 012°40'1616.0
2015-Jul-22 17:33N 66°35' E 012°13'1313.5
2015-Jul-22 16:33N 66°24' E 012°32'1211.4
2015-Jul-22 15:31N 66°20' E 013°00'4 2.0
2015-Jul-22 13:23N 66°16' E 012°57'1315.7
2015-Jul-22 12:34N 66°27' E 012°37'1111.3
2015-Jul-22 11:34N 66°30' E 012°10'1313.3
2015-Jul-22 10:33N 66°23' E 012°39'1612.4
2015-Jul-22 09:16N 66°07' E 012°47'10 3.5
2015-Jul-22 06:24N 66°17' E 012°56'911.1
2015-Jul-22 05:34N 66°23' E 012°38'1414.0
2015-Jul-22 04:33N 66°30' E 012°09'5 5.1
2015-Jul-22 03:33N 66°35' E 012°13'0 0.0
2015-Jul-22 02:33N 66°35' E 012°13'0 0.0
2015-Jul-22 01:33N 66°35' E 012°13'0 0.0
2015-Jul-22 00:33N 66°35' E 012°13'0 0.0
2015-Jul-21 23:33N 66°35' E 012°13'0 0.0
2015-Jul-21 22:31N 66°35' E 012°13'0 0.0
2015-Jul-21 21:33N 66°35' E 012°13'0 0.0
2015-Jul-21 20:32N 66°35' E 012°13'2 2.4
2015-Jul-21 19:31N 66°33' E 012°10'1313.2
2015-Jul-21 18:34N 66°25' E 012°33'9 8.9
2015-Jul-21 17:34N 66°32' E 012°21'9 9.5
2015-Jul-21 16:34N 66°23' E 012°22'1514.0
2015-Jul-21 15:28N 66°20' E 013°00'0 0.0
2015-Jul-21 06:07N 66°21' E 012°60'916.1
2015-Jul-21 05:34N 66°22' E 012°38'1514.4
2015-Jul-21 04:33N 66°30' E 012°07'5 5.0
2015-Jul-21 03:30N 66°35' E 012°13'0 0.0
2015-Jul-21 02:33N 66°35' E 012°13'0 0.0
2015-Jul-21 01:33N 66°35' E 012°13'0 0.0
2015-Jul-21 00:31N 66°35' E 012°13'0 0.0
2015-Jul-20 23:28N 66°35' E 012°13'0 0.0
2015-Jul-20 22:32N 66°35' E 012°13'0 0.0
2015-Jul-20 21:30N 66°35' E 012°13'0 0.0
2015-Jul-20 20:22N 66°35' E 012°13'6 7.3
2015-Jul-20 19:34N 66°29' E 012°10'1616.0
2015-Jul-20 18:33N 66°23' E 012°47'1817.2
2015-Jul-20 17:31N 66°35' E 012°13'1313.9
2015-Jul-20 16:34N 66°22' E 012°24'1514.4
2015-Jul-20 15:33N 66°20' E 013°00'13 0.5
2015-Jul-19 14:21N 66°10' E 012°40'1721.1
2015-Jul-19 13:34N 66°26' E 012°38'1310.2
2015-Jul-19 12:16N 66°35' E 012°13'0 0.0
2015-Jul-19 00:28N 66°35' E 012°13'0 0.0
2015-Jul-18 23:28N 66°35' E 012°13'1 0.1
2015-Jul-18 19:33N 66°35' E 012°12'1616.4
2015-Jul-18 18:33N 66°22' E 012°37'1514.9
2015-Jul-18 17:31N 66°34' E 012°14'1312.9
2015-Jul-18 16:33N 66°22' E 012°22'1413.7
2015-Jul-18 15:33N 66°21' E 012°57'19 2.2
2015-Jul-18 07:05N 66°03' E 012°39'  

Dump ship's entire track history